Aviation Digital Data Service (ADDS)

Output produced by METARs form (0637 UTC 19 February 2019)
found at http://www.aviationweather.gov/metar/data/
 
Forecast for: VTBS (CHON BURI/SATTAH, TH)
Text: TAF VTBS 190500Z 1906/2012 19008KT 9999 FEW020
Forecast period: 0600 to 2200 UTC 19 February 2019
Forecast type: FROM: standard forecast or significant change
Winds: from the S (190 degrees) at 9 MPH (8 knots; 4.1 m/s)
Visibility: 6 or more miles 10+ km)
Ceiling: at least 12,000 feet AGL
Clouds: few clouds at 2000 feet AGL
Weather: no significant weather forecast for this period
Text: BECMG 1922/1924 12005KT
Forecast period: 2200 UTC 19 February 2019 to 0200 UTC 20 February 2019
Forecast type: BECOMING: Conditions expected to become as follows by 0000 UTC 20 February 2019
Winds: from the ESE (120 degrees) at 6 MPH (5 knots; 2.6 m/s)
Visibility: 6 or more miles 10+ km)
Ceiling: at least 12,000 feet AGL
Clouds: few clouds at 2000 feet AGL
Weather: no significant weather forecast for this period
Text: BECMG 2002/2004 19008KT
Forecast period: 0200 to 1200 UTC 20 February 2019
Forecast type: BECOMING: Conditions expected to become as follows by 0400 UTC 20 February 2019
Winds: from the S (190 degrees) at 9 MPH (8 knots; 4.1 m/s)
Visibility: 6 or more miles 10+ km)
Ceiling: at least 12,000 feet AGL
Clouds: few clouds at 2000 feet AGL
Weather: no significant weather forecast for this period